sensor_id;sensor_type;location;lat;lon;timestamp;pressure;altitude;pressure_sealevel;temperature;humidity
27202;BME280;14717;46.924;15.474;2023-03-01T00:00:25;98767.34;;;2.61;84.16
27202;BME280;14717;46.924;15.474;2023-03-01T00:02:51;98764.06;;;2.53;84.19
27202;BME280;14717;46.924;15.474;2023-03-01T00:05:16;98765.72;;;2.54;84.63
27202;BME280;14717;46.924;15.474;2023-03-01T00:07:41;98772.84;;;2.55;84.44
27202;BME280;14717;46.924;15.474;2023-03-01T00:10:07;98769.09;;;2.50;84.86
27202;BME280;14717;46.924;15.474;2023-03-01T00:12:33;98759.91;;;2.44;85.47
27202;BME280;14717;46.924;15.474;2023-03-01T00:14:58;98757.63;;;2.41;86.37
27202;BME280;14717;46.924;15.474;2023-03-01T00:17:23;98764.28;;;2.52;85.87
27202;BME280;14717;46.924;15.474;2023-03-01T00:19:49;98772.22;;;2.53;85.46
27202;BME280;14717;46.924;15.474;2023-03-01T00:22:14;98772.34;;;2.64;84.48
27202;BME280;14717;46.924;15.474;2023-03-01T00:24:39;98772.84;;;2.79;84.16
27202;BME280;14717;46.924;15.474;2023-03-01T00:27:05;98764.28;;;2.76;83.64
27202;BME280;14717;46.924;15.474;2023-03-01T00:29:30;98761.03;;;2.61;84.48
27202;BME280;14717;46.924;15.474;2023-03-01T00:31:56;98756.06;;;2.58;84.43
27202;BME280;14717;46.924;15.474;2023-03-01T00:34:21;98765.19;;;2.70;84.38
27202;BME280;14717;46.924;15.474;2023-03-01T00:36:46;98759.22;;;2.79;84.29
27202;BME280;14717;46.924;15.474;2023-03-01T00:39:14;98763.22;;;2.77;83.47
27202;BME280;14717;46.924;15.474;2023-03-01T00:41:40;98773.03;;;2.60;83.78
27202;BME280;14717;46.924;15.474;2023-03-01T00:44:05;98764.22;;;2.58;84.29
27202;BME280;14717;46.924;15.474;2023-03-01T00:46:31;98765.00;;;2.65;83.63
27202;BME280;14717;46.924;15.474;2023-03-01T00:48:56;98756.09;;;2.76;83.18
27202;BME280;14717;46.924;15.474;2023-03-01T00:51:24;98756.72;;;2.78;83.26
27202;BME280;14717;46.924;15.474;2023-03-01T00:53:52;98744.34;;;2.75;82.87
27202;BME280;14717;46.924;15.474;2023-03-01T00:56:18;98747.03;;;2.82;82.50
27202;BME280;14717;46.924;15.474;2023-03-01T00:58:43;98757.06;;;2.88;82.38
27202;BME280;14717;46.924;15.474;2023-03-01T01:04:06;98746.94;;;2.95;82.09
27202;BME280;14717;46.924;15.474;2023-03-01T01:06:35;98731.59;;;2.94;82.41
27202;BME280;14717;46.924;15.474;2023-03-01T01:09:02;98734.78;;;2.91;82.08
27202;BME280;14717;46.924;15.474;2023-03-01T01:11:28;98729.91;;;2.75;82.55
27202;BME280;14717;46.924;15.474;2023-03-01T01:13:54;98725.94;;;2.71;83.16
27202;BME280;14717;46.924;15.474;2023-03-01T01:16:22;98729.13;;;2.68;82.62
27202;BME280;14717;46.924;15.474;2023-03-01T01:18:47;98720.31;;;2.66;82.71
27202;BME280;14717;46.924;15.474;2023-03-01T01:21:16;98723.38;;;2.76;81.86
27202;BME280;14717;46.924;15.474;2023-03-01T01:23:42;98719.00;;;2.75;82.06
27202;BME280;14717;46.924;15.474;2023-03-01T01:26:11;98711.47;;;2.70;82.26
27202;BME280;14717;46.924;15.474;2023-03-01T01:28:36;98711.13;;;2.60;82.95
27202;BME280;14717;46.924;15.474;2023-03-01T01:31:02;98701.03;;;2.61;83.49
27202;BME280;14717;46.924;15.474;2023-03-01T01:33:28;98700.78;;;2.69;82.72
27202;BME280;14717;46.924;15.474;2023-03-01T01:35:54;98694.88;;;2.72;83.63
27202;BME280;14717;46.924;15.474;2023-03-01T01:38:19;98708.53;;;2.72;84.11
27202;BME280;14717;46.924;15.474;2023-03-01T01:40:47;98701.28;;;2.84;83.99
27202;BME280;14717;46.924;15.474;2023-03-01T01:43:22;98691.19;;;2.84;84.64
27202;BME280;14717;46.924;15.474;2023-03-01T01:45:49;98694.28;;;2.70;85.10
27202;BME280;14717;46.924;15.474;2023-03-01T01:48:19;98690.19;;;2.54;86.31
27202;BME280;14717;46.924;15.474;2023-03-01T01:50:50;98688.94;;;2.57;86.19
27202;BME280;14717;46.924;15.474;2023-03-01T01:53:19;98683.13;;;2.47;87.04
27202;BME280;14717;46.924;15.474;2023-03-01T01:55:48;98683.19;;;2.41;87.02
27202;BME280;14717;46.924;15.474;2023-03-01T01:58:18;98683.41;;;2.39;87.24
27202;BME280;14717;46.924;15.474;2023-03-01T02:00:44;98681.78;;;2.56;86.72
27202;BME280;14717;46.924;15.474;2023-03-01T02:03:13;98683.19;;;2.65;86.16
27202;BME280;14717;46.924;15.474;2023-03-01T02:06:04;98682.00;;;2.79;85.04
27202;BME280;14717;46.924;15.474;2023-03-01T02:08:35;98677.78;;;2.83;85.13
27202;BME280;14717;46.924;15.474;2023-03-01T02:11:02;98677.78;;;2.83;85.16
27202;BME280;14717;46.924;15.474;2023-03-01T02:13:30;98673.06;;;2.72;85.92
27202;BME280;14717;46.924;15.474;2023-03-01T02:15:56;98682.13;;;2.66;85.31
27202;BME280;14717;46.924;15.474;2023-03-01T02:18:23;98678.34;;;2.67;86.05
27202;BME280;14717;46.924;15.474;2023-03-01T02:23:34;98671.84;;;2.68;85.63
27202;BME280;14717;46.924;15.474;2023-03-01T02:26:18;98676.22;;;2.69;85.19
27202;BME280;14717;46.924;15.474;2023-03-01T02:28:45;98660.16;;;2.61;85.96
27202;BME280;14717;46.924;15.474;2023-03-01T02:31:15;98665.06;;;2.53;87.11
27202;BME280;14717;46.924;15.474;2023-03-01T02:34:00;98662.97;;;2.48;87.29
27202;BME280;14717;46.924;15.474;2023-03-01T02:36:33;98661.50;;;2.52;86.80
27202;BME280;14717;46.924;15.474;2023-03-01T02:39:02;98664.56;;;2.62;85.96
27202;BME280;14717;46.924;15.474;2023-03-01T02:41:30;98660.69;;;2.69;85.59
27202;BME280;14717;46.924;15.474;2023-03-01T02:43:57;98665.66;;;2.79;85.71
27202;BME280;14717;46.924;15.474;2023-03-01T02:46:25;98661.09;;;2.73;84.74
27202;BME280;14717;46.924;15.474;2023-03-01T02:48:54;98660.84;;;2.56;85.74
27202;BME280;14717;46.924;15.474;2023-03-01T02:54:29;98663.78;;;2.55;86.24
27202;BME280;14717;46.924;15.474;2023-03-01T02:56:57;98659.09;;;2.62;85.76
27202;BME280;14717;46.924;15.474;2023-03-01T02:59:27;98654.47;;;2.62;85.42
27202;BME280;14717;46.924;15.474;2023-03-01T03:01:54;98659.00;;;2.51;86.03
27202;BME280;14717;46.924;15.474;2023-03-01T03:04:20;98663.78;;;2.55;86.57
27202;BME280;14717;46.924;15.474;2023-03-01T03:06:47;98661.59;;;2.63;86.01
27202;BME280;14717;46.924;15.474;2023-03-01T03:09:13;98656.75;;;2.65;85.82
27202;BME280;14717;46.924;15.474;2023-03-01T03:11:39;98657.31;;;2.74;86.10
27202;BME280;14717;46.924;15.474;2023-03-01T03:14:06;98661.88;;;2.80;85.83
27202;BME280;14717;46.924;15.474;2023-03-01T03:16:58;98664.44;;;2.75;85.91
27202;BME280;14717;46.924;15.474;2023-03-01T03:19:23;98663.13;;;2.77;86.26
27202;BME280;14717;46.924;15.474;2023-03-01T03:21:48;98666.94;;;2.76;86.47
27202;BME280;14717;46.924;15.474;2023-03-01T03:24:14;98666.88;;;2.83;85.82
27202;BME280;14717;46.924;15.474;2023-03-01T03:26:39;98667.31;;;2.80;86.21
27202;BME280;14717;46.924;15.474;2023-03-01T03:29:05;98666.16;;;2.69;85.75
27202;BME280;14717;46.924;15.474;2023-03-01T03:31:30;98671.22;;;2.66;86.07
27202;BME280;14717;46.924;15.474;2023-03-01T03:33:56;98662.00;;;2.67;86.31
27202;BME280;14717;46.924;15.474;2023-03-01T03:36:23;98665.16;;;2.64;87.16
27202;BME280;14717;46.924;15.474;2023-03-01T03:38:50;98659.88;;;2.69;86.55
27202;BME280;14717;46.924;15.474;2023-03-01T03:41:16;98669.50;;;2.71;86.16
27202;BME280;14717;46.924;15.474;2023-03-01T03:43:42;98670.34;;;2.72;86.42
27202;BME280;14717;46.924;15.474;2023-03-01T03:46:08;98657.69;;;2.77;86.18
27202;BME280;14717;46.924;15.474;2023-03-01T03:48:40;98664.00;;;2.78;85.90
27202;BME280;14717;46.924;15.474;2023-03-01T03:51:06;98664.06;;;2.71;85.18
27202;BME280;14717;46.924;15.474;2023-03-01T03:53:34;98662.50;;;2.57;85.63
27202;BME280;14717;46.924;15.474;2023-03-01T03:56:00;98662.53;;;2.51;86.56
27202;BME280;14717;46.924;15.474;2023-03-01T03:58:26;98657.94;;;2.52;86.25
27202;BME280;14717;46.924;15.474;2023-03-01T04:00:54;98658.16;;;2.50;86.09
27202;BME280;14717;46.924;15.474;2023-03-01T04:03:21;98656.81;;;2.59;85.83
27202;BME280;14717;46.924;15.474;2023-03-01T04:05:47;98648.81;;;2.64;86.14
27202;BME280;14717;46.924;15.474;2023-03-01T04:08:15;98649.72;;;2.58;85.42
27202;BME280;14717;46.924;15.474;2023-03-01T04:10:44;98653.66;;;2.62;85.82
27202;BME280;14717;46.924;15.474;2023-03-01T04:13:13;98655.72;;;2.66;86.13
27202;BME280;14717;46.924;15.474;2023-03-01T04:15:40;98654.84;;;2.66;86.42
27202;BME280;14717;46.924;15.474;2023-03-01T04:18:05;98648.34;;;2.67;85.97
27202;BME280;14717;46.924;15.474;2023-03-01T04:20:33;98656.66;;;2.54;86.60
27202;BME280;14717;46.924;15.474;2023-03-01T04:23:10;98658.78;;;2.52;87.18
27202;BME280;14717;46.924;15.474;2023-03-01T04:25:56;98654.19;;;2.46;87.40
27202;BME280;14717;46.924;15.474;2023-03-01T04:30:55;98663.06;;;2.42;86.75
27202;BME280;14717;46.924;15.474;2023-03-01T04:33:21;98664.31;;;2.39;87.48
27202;BME280;14717;46.924;15.474;2023-03-01T04:35:47;98669.13;;;2.44;87.15
27202;BME280;14717;46.924;15.474;2023-03-01T04:38:17;98669.28;;;2.49;86.80
27202;BME280;14717;46.924;15.474;2023-03-01T04:40:43;98662.38;;;2.46;87.34
27202;BME280;14717;46.924;15.474;2023-03-01T04:43:09;98661.59;;;2.39;88.03
27202;BME280;14717;46.924;15.474;2023-03-01T04:45:35;98654.78;;;2.30;88.24
27202;BME280;14717;46.924;15.474;2023-03-01T04:48:01;98658.31;;;2.31;88.78
27202;BME280;14717;46.924;15.474;2023-03-01T04:50:26;98651.88;;;2.25;89.38
27202;BME280;14717;46.924;15.474;2023-03-01T04:52:52;98651.50;;;2.22;90.42
27202;BME280;14717;46.924;15.474;2023-03-01T04:55:18;98650.25;;;2.18;91.00
27202;BME280;14717;46.924;15.474;2023-03-01T04:57:43;98654.13;;;2.04;92.02
27202;BME280;14717;46.924;15.474;2023-03-01T05:00:11;98647.59;;;2.05;91.56
27202;BME280;14717;46.924;15.474;2023-03-01T05:02:54;98641.16;;;2.00;92.57
27202;BME280;14717;46.924;15.474;2023-03-01T05:05:22;98641.97;;;2.00;92.00
27202;BME280;14717;46.924;15.474;2023-03-01T05:07:53;98648.16;;;2.13;91.87
27202;BME280;14717;46.924;15.474;2023-03-01T05:10:19;98658.38;;;2.24;91.14
27202;BME280;14717;46.924;15.474;2023-03-01T05:12:45;98649.94;;;2.32;90.72
27202;BME280;14717;46.924;15.474;2023-03-01T05:15:12;98655.09;;;2.40;90.14
27202;BME280;14717;46.924;15.474;2023-03-01T05:17:37;98652.56;;;2.45;89.63
27202;BME280;14717;46.924;15.474;2023-03-01T05:20:03;98652.88;;;2.55;89.29
27202;BME280;14717;46.924;15.474;2023-03-01T05:22:33;98651.97;;;2.61;88.40
27202;BME280;14717;46.924;15.474;2023-03-01T05:24:59;98656.97;;;2.64;88.43
27202;BME280;14717;46.924;15.474;2023-03-01T05:27:24;98663.09;;;2.59;88.00
27202;BME280;14717;46.924;15.474;2023-03-01T05:29:49;98661.22;;;2.60;87.98
27202;BME280;14717;46.924;15.474;2023-03-01T05:32:15;98655.72;;;2.66;88.58
27202;BME280;14717;46.924;15.474;2023-03-01T05:34:41;98658.06;;;2.63;88.05
27202;BME280;14717;46.924;15.474;2023-03-01T05:37:07;98670.44;;;2.59;87.92
27202;BME280;14717;46.924;15.474;2023-03-01T05:39:33;98663.66;;;2.68;88.39
27202;BME280;14717;46.924;15.474;2023-03-01T05:42:00;98656.97;;;2.64;88.05
27202;BME280;14717;46.924;15.474;2023-03-01T05:44:27;98659.50;;;2.65;88.64
27202;BME280;14717;46.924;15.474;2023-03-01T05:46:52;98657.94;;;2.52;89.24
27202;BME280;14717;46.924;15.474;2023-03-01T05:49:18;98657.16;;;2.45;89.52
27202;BME280;14717;46.924;15.474;2023-03-01T05:51:48;98662.00;;;2.43;89.90
27202;BME280;14717;46.924;15.474;2023-03-01T05:54:14;98662.22;;;2.41;90.05
27202;BME280;14717;46.924;15.474;2023-03-01T05:56:40;98666.63;;;2.42;89.97
27202;BME280;14717;46.924;15.474;2023-03-01T05:59:05;98670.13;;;2.49;89.99
27202;BME280;14717;46.924;15.474;2023-03-01T06:01:35;98676.16;;;2.51;90.01
27202;BME280;14717;46.924;15.474;2023-03-01T06:04:01;98667.78;;;2.53;90.11
27202;BME280;14717;46.924;15.474;2023-03-01T06:06:27;98667.56;;;2.54;89.73
27202;BME280;14717;46.924;15.474;2023-03-01T06:08:54;98668.81;;;2.58;90.35
27202;BME280;14717;46.924;15.474;2023-03-01T06:11:20;98677.91;;;2.70;89.12
27202;BME280;14717;46.924;15.474;2023-03-01T06:13:46;98674.28;;;2.76;88.61
27202;BME280;14717;46.924;15.474;2023-03-01T06:16:12;98677.00;;;2.76;88.63
27202;BME280;14717;46.924;15.474;2023-03-01T06:18:38;98675.28;;;2.81;87.99
27202;BME280;14717;46.924;15.474;2023-03-01T06:21:05;98672.63;;;2.75;87.92
27202;BME280;14717;46.924;15.474;2023-03-01T06:23:30;98680.19;;;2.73;88.51
27202;BME280;14717;46.924;15.474;2023-03-01T06:25:55;98690.03;;;2.74;88.70
27202;BME280;14717;46.924;15.474;2023-03-01T06:28:21;98692.53;;;2.75;88.88
27202;BME280;14717;46.924;15.474;2023-03-01T06:30:46;98696.63;;;2.66;88.21
27202;BME280;14717;46.924;15.474;2023-03-01T06:33:12;98696.63;;;2.66;87.98
27202;BME280;14717;46.924;15.474;2023-03-01T06:35:37;98701.69;;;2.63;88.09
27202;BME280;14717;46.924;15.474;2023-03-01T06:38:04;98700.16;;;2.67;88.57
27202;BME280;14717;46.924;15.474;2023-03-01T06:40:30;98697.22;;;2.68;87.64
27202;BME280;14717;46.924;15.474;2023-03-01T06:42:56;98703.84;;;2.79;87.19
27202;BME280;14717;46.924;15.474;2023-03-01T06:45:22;98708.19;;;2.86;86.63
27202;BME280;14717;46.924;15.474;2023-03-01T06:47:48;98700.16;;;2.91;86.39
27202;BME280;14717;46.924;15.474;2023-03-01T06:50:14;98701.59;;;2.94;86.50
27202;BME280;14717;46.924;15.474;2023-03-01T06:52:39;98694.66;;;2.97;86.83
27202;BME280;14717;46.924;15.474;2023-03-01T06:55:05;98695.84;;;3.01;86.06
27202;BME280;14717;46.924;15.474;2023-03-01T06:57:31;98704.81;;;3.08;85.79
27202;BME280;14717;46.924;15.474;2023-03-01T06:59:56;98693.88;;;3.08;85.73
27202;BME280;14717;46.924;15.474;2023-03-01T07:02:22;98701.03;;;3.09;85.97
27202;BME280;14717;46.924;15.474;2023-03-01T07:04:51;98710.19;;;3.15;85.65
27202;BME280;14717;46.924;15.474;2023-03-01T07:07:17;98698.00;;;3.17;85.26
27202;BME280;14717;46.924;15.474;2023-03-01T07:09:46;98697.16;;;3.17;84.54
27202;BME280;14717;46.924;15.474;2023-03-01T07:12:12;98698.59;;;3.19;84.50
27202;BME280;14717;46.924;15.474;2023-03-01T07:14:37;98701.72;;;3.23;83.73
27202;BME280;14717;46.924;15.474;2023-03-01T07:17:02;98712.63;;;3.23;83.48
27202;BME280;14717;46.924;15.474;2023-03-01T07:19:28;98709.69;;;3.24;82.58
27202;BME280;14717;46.924;15.474;2023-03-01T07:21:53;98722.66;;;3.29;81.09
27202;BME280;14717;46.924;15.474;2023-03-01T07:24:20;98724.47;;;3.35;81.34
27202;BME280;14717;46.924;15.474;2023-03-01T07:26:48;98717.75;;;3.37;81.37
27202;BME280;14717;46.924;15.474;2023-03-01T07:29:14;98728.03;;;3.35;82.00
27202;BME280;14717;46.924;15.474;2023-03-01T07:31:40;98733.25;;;3.37;81.52
27202;BME280;14717;46.924;15.474;2023-03-01T07:34:05;98731.78;;;3.40;81.08
27202;BME280;14717;46.924;15.474;2023-03-01T07:36:31;98737.69;;;3.38;80.17
27202;BME280;14717;46.924;15.474;2023-03-01T07:38:56;98739.72;;;3.42;79.87
27202;BME280;14717;46.924;15.474;2023-03-01T07:41:22;98730.78;;;3.53;80.25
27202;BME280;14717;46.924;15.474;2023-03-01T07:43:48;98735.25;;;3.47;78.28
27202;BME280;14717;46.924;15.474;2023-03-01T07:46:13;98737.16;;;3.47;78.70
27202;BME280;14717;46.924;15.474;2023-03-01T07:48:39;98751.31;;;3.38;79.41
27202;BME280;14717;46.924;15.474;2023-03-01T07:51:05;98747.28;;;3.40;80.83
27202;BME280;14717;46.924;15.474;2023-03-01T07:53:32;98746.03;;;3.42;81.61
27202;BME280;14717;46.924;15.474;2023-03-01T07:56:25;98737.59;;;3.44;80.44
27202;BME280;14717;46.924;15.474;2023-03-01T07:58:50;98737.59;;;3.44;80.97
27202;BME280;14717;46.924;15.474;2023-03-01T08:01:18;98746.03;;;3.42;79.88
27202;BME280;14717;46.924;15.474;2023-03-01T08:03:44;98741.75;;;3.46;79.22
27202;BME280;14717;46.924;15.474;2023-03-01T08:06:11;98745.66;;;3.57;78.77
27202;BME280;14717;46.924;15.474;2023-03-01T08:08:37;98734.50;;;3.58;77.36
27202;BME280;14717;46.924;15.474;2023-03-01T08:11:04;98736.47;;;3.69;76.61
27202;BME280;14717;46.924;15.474;2023-03-01T08:13:30;98739.13;;;3.58;74.66
27202;BME280;14717;46.924;15.474;2023-03-01T08:16:04;98728.78;;;3.60;74.30
27202;BME280;14717;46.924;15.474;2023-03-01T08:18:30;98731.81;;;3.70;72.78
27202;BME280;14717;46.924;15.474;2023-03-01T08:20:56;98740.16;;;3.75;71.03
27202;BME280;14717;46.924;15.474;2023-03-01T08:23:25;98735.09;;;3.78;71.54
27202;BME280;14717;46.924;15.474;2023-03-01T08:25:51;98733.66;;;3.76;71.63
27202;BME280;14717;46.924;15.474;2023-03-01T08:28:18;98733.50;;;3.71;69.70
27202;BME280;14717;46.924;15.474;2023-03-01T08:30:43;98737.47;;;3.57;70.57
27202;BME280;14717;46.924;15.474;2023-03-01T08:33:08;98729.56;;;3.49;71.66
27202;BME280;14717;46.924;15.474;2023-03-01T08:35:34;98738.13;;;3.35;74.24
27202;BME280;14717;46.924;15.474;2023-03-01T08:37:59;98734.97;;;3.13;75.08
27202;BME280;14717;46.924;15.474;2023-03-01T08:40:24;98724.97;;;3.07;76.30
27202;BME280;14717;46.924;15.474;2023-03-01T08:42:50;98723.47;;;3.11;77.53
27202;BME280;14717;46.924;15.474;2023-03-01T08:45:15;98706.34;;;3.22;76.84
27202;BME280;14717;46.924;15.474;2023-03-01T08:47:43;98717.75;;;3.37;77.74
27202;BME280;14717;46.924;15.474;2023-03-01T08:50:09;98716.34;;;3.28;79.42
27202;BME280;14717;46.924;15.474;2023-03-01T08:52:35;98719.53;;;3.25;79.99
27202;BME280;14717;46.924;15.474;2023-03-01T08:55:00;98718.16;;;3.16;78.82
27202;BME280;14717;46.924;15.474;2023-03-01T08:57:26;98710.13;;;3.21;79.80
27202;BME280;14717;46.924;15.474;2023-03-01T08:59:52;98714.53;;;3.40;78.92
27202;BME280;14717;46.924;15.474;2023-03-01T09:02:18;98704.47;;;3.40;78.16
27202;BME280;14717;46.924;15.474;2023-03-01T09:04:44;98697.53;;;3.56;78.35
27202;BME280;14717;46.924;15.474;2023-03-01T09:07:10;98692.09;;;3.56;77.81
27202;BME280;14717;46.924;15.474;2023-03-01T09:09:35;98686.84;;;3.37;77.96
27202;BME280;14717;46.924;15.474;2023-03-01T09:12:02;98674.28;;;3.36;77.23
27202;BME280;14717;46.924;15.474;2023-03-01T09:14:28;98682.34;;;3.60;77.62
27202;BME280;14717;46.924;15.474;2023-03-01T09:16:53;98679.78;;;3.65;76.75
27202;BME280;14717;46.924;15.474;2023-03-01T09:19:19;98684.63;;;3.63;76.20
27202;BME280;14717;46.924;15.474;2023-03-01T09:21:44;98671.13;;;3.68;76.64
27202;BME280;14717;46.924;15.474;2023-03-01T09:24:20;98669.72;;;3.94;75.16
27202;BME280;14717;46.924;15.474;2023-03-01T09:26:47;98676.75;;;4.02;74.38
27202;BME280;14717;46.924;15.474;2023-03-01T09:29:13;98672.78;;;3.86;74.55
27202;BME280;14717;46.924;15.474;2023-03-01T09:31:39;98659.81;;;3.82;74.83
27202;BME280;14717;46.924;15.474;2023-03-01T09:34:05;98658.63;;;3.78;73.90
27202;BME280;14717;46.924;15.474;2023-03-01T09:36:31;98651.38;;;3.83;73.75
27202;BME280;14717;46.924;15.474;2023-03-01T09:38:57;98656.38;;;3.86;73.00
27202;BME280;14717;46.924;15.474;2023-03-01T09:42:00;98650.88;;;4.04;73.17
27202;BME280;14717;46.924;15.474;2023-03-01T09:47:40;98637.81;;;4.06;73.38
27202;BME280;14717;46.924;15.474;2023-03-01T09:52:43;98646.47;;;4.03;72.36
27202;BME280;14717;46.924;15.474;2023-03-01T09:55:14;98643.41;;;4.11;71.53
27202;BME280;14717;46.924;15.474;2023-03-01T10:00:47;98635.63;;;4.37;71.83
27202;BME280;14717;46.924;15.474;2023-03-01T10:05:59;98623.38;;;4.51;69.90
27202;BME280;14717;46.924;15.474;2023-03-01T10:08:43;98628.84;;;4.51;68.74
27202;BME280;14717;46.924;15.474;2023-03-01T10:16:21;98640.13;;;4.43;70.49
27202;BME280;14717;46.924;15.474;2023-03-01T10:18:55;98640.63;;;4.52;69.15
27202;BME280;14717;46.924;15.474;2023-03-01T10:21:23;98640.19;;;4.66;68.66
27202;BME280;14717;46.924;15.474;2023-03-01T10:23:52;98646.47;;;4.66;69.08
27202;BME280;14717;46.924;15.474;2023-03-01T10:26:47;98666.59;;;4.61;69.21
27202;BME280;14717;46.924;15.474;2023-03-01T10:29:14;98669.22;;;4.67;69.45
27202;BME280;14717;46.924;15.474;2023-03-01T10:31:45;98684.91;;;4.71;69.34
27202;BME280;14717;46.924;15.474;2023-03-01T10:36:41;98679.09;;;4.79;69.27
27202;BME280;14717;46.924;15.474;2023-03-01T10:39:21;98676.47;;;4.84;69.09
27202;BME280;14717;46.924;15.474;2023-03-01T10:42:18;98678.50;;;4.77;70.51
27202;BME280;14717;46.924;15.474;2023-03-01T10:44:46;98688.16;;;4.80;68.93
27202;BME280;14717;46.924;15.474;2023-03-01T10:47:21;98675.88;;;4.82;68.47
27202;BME280;14717;46.924;15.474;2023-03-01T10:49:57;98683.38;;;4.75;68.66
27202;BME280;14717;46.924;15.474;2023-03-01T10:52:35;98671.00;;;4.84;68.25
27202;BME280;14717;46.924;15.474;2023-03-01T10:55:33;98663.50;;;4.91;68.17
27202;BME280;14717;46.924;15.474;2023-03-01T10:58:17;98659.56;;;4.76;69.49
27202;BME280;14717;46.924;15.474;2023-03-01T11:01:00;98655.31;;;4.80;69.15
27202;BME280;14717;46.924;15.474;2023-03-01T11:03:35;98648.97;;;4.79;69.47
27202;BME280;14717;46.924;15.474;2023-03-01T11:06:22;98634.47;;;4.67;69.55
27202;BME280;14717;46.924;15.474;2023-03-01T11:08:49;98635.41;;;4.62;68.87
27202;BME280;14717;46.924;15.474;2023-03-01T11:11:33;98646.72;;;4.54;69.67
27202;BME280;14717;46.924;15.474;2023-03-01T11:16:38;98645.75;;;4.60;69.97
27202;BME280;14717;46.924;15.474;2023-03-01T11:21:39;98641.72;;;4.62;70.51
27202;BME280;14717;46.924;15.474;2023-03-01T11:24:10;98633.63;;;4.56;69.89
27202;BME280;14717;46.924;15.474;2023-03-01T11:26:40;98633.66;;;4.67;71.03
27202;BME280;14717;46.924;15.474;2023-03-01T11:29:32;98631.03;;;4.61;70.50
27202;BME280;14717;46.924;15.474;2023-03-01T11:32:00;98640.78;;;4.79;70.19
27202;BME280;14717;46.924;15.474;2023-03-01T11:40:13;98629.13;;;4.95;69.87
27202;BME280;14717;46.924;15.474;2023-03-01T11:42:52;98617.81;;;5.03;69.98
27202;BME280;14717;46.924;15.474;2023-03-01T11:45:23;98616.38;;;4.89;71.29
27202;BME280;14717;46.924;15.474;2023-03-01T11:48:17;98615.09;;;4.80;70.22
27202;BME280;14717;46.924;15.474;2023-03-01T11:50:50;98611.50;;;4.91;70.52
27202;BME280;14717;46.924;15.474;2023-03-01T11:53:33;98611.38;;;4.86;69.30
27202;BME280;14717;46.924;15.474;2023-03-01T11:58:43;98598.19;;;4.95;71.61
27202;BME280;14717;46.924;15.474;2023-03-01T12:10:23;98560.28;;;5.26;69.38
27202;BME280;14717;46.924;15.474;2023-03-01T12:18:34;98556.13;;;5.51;66.83
27202;BME280;14717;46.924;15.474;2023-03-01T12:21:23;98550.38;;;5.25;68.40
27202;BME280;14717;46.924;15.474;2023-03-01T12:24:07;98538.75;;;5.18;69.22
27202;BME280;14717;46.924;15.474;2023-03-01T12:29:39;98545.03;;;5.18;69.48
27202;BME280;14717;46.924;15.474;2023-03-01T12:45:54;98504.19;;;5.56;69.29
27202;BME280;14717;46.924;15.474;2023-03-01T12:51:16;98498.16;;;5.43;69.86
27202;BME280;14717;46.924;15.474;2023-03-01T12:53:51;98482.75;;;5.53;70.26
27202;BME280;14717;46.924;15.474;2023-03-01T12:56:25;98487.50;;;5.57;69.35
27202;BME280;14717;46.924;15.474;2023-03-01T12:59:32;98483.56;;;5.53;69.70
27202;BME280;14717;46.924;15.474;2023-03-01T13:02:10;98478.50;;;5.62;70.23
27202;BME280;14717;46.924;15.474;2023-03-01T13:07:19;98454.63;;;5.57;70.34
27202;BME280;14717;46.924;15.474;2023-03-01T13:18:01;98455.75;;;5.61;70.19
27202;BME280;14717;46.924;15.474;2023-03-01T13:20:54;98450.47;;;5.71;70.32
27202;BME280;14717;46.924;15.474;2023-03-01T13:31:08;98448.41;;;5.78;70.10
27202;BME280;14717;46.924;15.474;2023-03-01T13:33:48;98447.38;;;5.68;69.85
27202;BME280;14717;46.924;15.474;2023-03-01T13:46:48;98448.34;;;5.73;69.68
27202;BME280;14717;46.924;15.474;2023-03-01T13:49:18;98440.81;;;5.80;69.66
27202;BME280;14717;46.924;15.474;2023-03-01T13:51:48;98432.81;;;5.95;69.90
27202;BME280;14717;46.924;15.474;2023-03-01T13:54:16;98443.78;;;5.95;69.60
27202;BME280;14717;46.924;15.474;2023-03-01T13:56:46;98434.31;;;6.02;69.31
27202;BME280;14717;46.924;15.474;2023-03-01T13:59:17;98435.81;;;6.10;68.52
27202;BME280;14717;46.924;15.474;2023-03-01T14:01:43;98426.16;;;6.07;69.23
27202;BME280;14717;46.924;15.474;2023-03-01T14:04:35;98419.34;;;6.26;68.61
27202;BME280;14717;46.924;15.474;2023-03-01T14:07:18;98426.91;;;6.03;68.88
27202;BME280;14717;46.924;15.474;2023-03-01T14:09:45;98410.91;;;5.95;69.00
27202;BME280;14717;46.924;15.474;2023-03-01T14:14:59;98422.44;;;5.81;69.63
27202;BME280;14717;46.924;15.474;2023-03-01T14:17:41;98411.06;;;6.05;70.06
27202;BME280;14717;46.924;15.474;2023-03-01T14:20:17;98410.38;;;5.98;69.86
27202;BME280;14717;46.924;15.474;2023-03-01T14:22:44;98408.97;;;6.12;70.23
27202;BME280;14717;46.924;15.474;2023-03-01T14:25:20;98415.03;;;5.97;71.39
27202;BME280;14717;46.924;15.474;2023-03-01T14:30:24;98414.22;;;5.97;72.29
27202;BME280;14717;46.924;15.474;2023-03-01T14:32:59;98397.75;;;5.97;71.33
27202;BME280;14717;46.924;15.474;2023-03-01T14:35:28;98411.47;;;5.97;72.51
27202;BME280;14717;46.924;15.474;2023-03-01T14:37:54;98400.34;;;6.03;72.28
27202;BME280;14717;46.924;15.474;2023-03-01T14:42:47;98399.59;;;5.75;74.69
27202;BME280;14717;46.924;15.474;2023-03-01T14:45:13;98401.22;;;5.60;75.69
27202;BME280;14717;46.924;15.474;2023-03-01T14:47:38;98404.09;;;5.53;76.71
27202;BME280;14717;46.924;15.474;2023-03-01T14:50:21;98399.91;;;5.62;77.79
27202;BME280;14717;46.924;15.474;2023-03-01T14:52:52;98389.31;;;5.82;78.29
27202;BME280;14717;46.924;15.474;2023-03-01T14:55:21;98401.44;;;5.58;76.95
27202;BME280;14717;46.924;15.474;2023-03-01T14:57:51;98389.75;;;5.47;77.96
27202;BME280;14717;46.924;15.474;2023-03-01T15:00:21;98392.56;;;5.51;78.76
27202;BME280;14717;46.924;15.474;2023-03-01T15:02:48;98380.78;;;5.51;78.58
27202;BME280;14717;46.924;15.474;2023-03-01T15:05:16;98383.78;;;5.49;77.55